K5WPH Weather Reports


Display with metric or nautical units.
time (UTC)temp
F
wind
direction
speed
MPH
gust
MPH
rain 1hr
in
rain 24hr
in
rain mn
in
humidity
%
barometer
mb
20260503184215 78 359 0.0 0.0 0.00 0.00 0.00 4
20260503183716 77 359 0.0 0.0 0.00 0.00 0.00 4
20260503183216 77 359 0.0 0.0 0.00 0.00 0.00 4
20260503182716 76 359 0.0 0.0 0.00 0.00 0.00 5
20260503182216 76 359 0.0 0.0 0.00 0.00 0.00 5
20260503181715 75 359 0.0 0.0 0.00 0.00 0.00 5
20260503181216 75 359 0.0 0.0 0.00 0.00 0.00 5
20260503180715 75 359 0.0 0.0 0.00 0.00 0.00 5
20260503180216 75 359 0.0 0.0 0.00 0.00 0.00 5
20260503175715 74 359 0.0 0.0 0.00 0.00 0.00 6
20260503175215 73 359 0.0 0.0 0.00 0.00 0.00 6
20260503174716 73 359 0.0 0.0 0.00 0.00 0.00 6
20260503174216 72 359 0.0 0.0 0.00 0.00 0.00 6
20260503173715 73 359 0.0 0.0 0.00 0.00 0.00 6
20260503173215 73 359 0.0 0.0 0.00 0.00 0.00 6
20260503172715 73 359 0.0 0.0 0.00 0.00 0.00 6
20260503172216 72 359 0.0 0.0 0.00 0.00 0.00 7
20260503171715 72 359 0.0 0.0 0.00 0.00 0.00 7
20260503171215 72 359 0.0 0.0 0.00 0.00 0.00 6
20260503170715 72 359 0.0 0.0 0.00 0.00 0.00 7
20260503170216 72 359 0.0 0.0 0.00 0.00 0.00 7
20260503160217 70 359 0.0 0.0 0.00 0.00 0.00 9
20260503150716 65 359 0.0 0.0 0.00 0.00 0.00 13
20260503150216 64 359 0.0 0.0 0.00 0.00 0.00 13
20260503140216 60 359 0.0 0.0 0.00 0.00 0.00 23
20260503131216 56 359 0.0 0.0 0.00 0.00 0.00 33
20260503130715 56 359 0.0 0.0 0.00 0.00 0.00 34
20260503130216 56 359 0.0 0.0 0.00 0.00 0.00 35
20260503110216 56 359 0.0 0.0 0.00 0.00 0.00 33
20260503100216 56 359 0.0 0.0 0.00 0.00 0.00 34
20260503090216 56 359 0.0 0.0 0.00 0.00 0.00 33
20260503081215 57 359 0.0 0.0 0.00 0.00 0.00 31
20260503080715 57 359 0.0 0.0 0.00 0.00 0.00 31
20260503080215 57 359 0.0 0.0 0.00 0.00 0.00 30
20260503072715 57 359 0.0 0.0 0.00 0.00 0.00 29
20260503072214 57 359 0.0 0.0 0.00 0.00 0.00 29
20260503071714 57 359 0.0 0.0 0.00 0.00 0.00 29
20260503071214 57 359 0.0 0.0 0.00 0.00 0.00 29
20260503070714 58 359 0.0 0.0 0.00 0.00 0.00 29
20260503060215 58 359 0.0 0.0 0.00 0.00 0.00 20
20260503054715 59 359 0.0 0.0 0.00 0.00 0.00 19
20260503054214 59 359 0.0 0.0 0.00 0.00 0.00 18
20260503053714 59 359 0.0 0.0 0.00 0.00 0.00 18
20260503053214 59 359 0.0 0.0 0.00 0.00 0.00 17
20260503052714 59 359 0.0 0.0 0.00 0.00 0.00 17
20260503052214 60 359 0.0 0.0 0.00 0.00 0.00 17
20260503051714 60 359 0.0 0.0 0.00 0.00 0.00 17
20260503051214 60 359 0.0 0.0 0.00 0.00 0.00 16
20260503050715 60 359 0.0 0.0 0.00 0.00 0.00 15
20260503050215 60 359 0.0 0.0 0.00 0.00 0.00 15
20260503045715 60 359 0.0 0.0 0.00 0.00 0.00 15
20260503044714 60 359 0.0 0.0 0.00 0.00 0.00 14
20260503044215 61 359 0.0 0.0 0.00 0.00 0.00 14
20260503043715 61 359 0.0 0.0 0.00 0.00 0.00 14
20260503043215 61 359 0.0 0.0 0.00 0.00 0.00 14
20260503042715 61 359 0.0 0.0 0.00 0.00 0.00 13
20260503042214 61 359 0.0 0.0 0.00 0.00 0.00 13
20260503041714 61 359 0.0 0.0 0.00 0.00 0.00 12
20260503041214 61 359 0.0 0.0 0.00 0.00 0.00 11
20260503040714 62 359 0.0 0.0 0.00 0.00 0.00 11
20260503035714 62 359 0.0 0.0 0.00 0.00 0.00 10
20260503035214 62 359 0.0 0.0 0.00 0.00 0.00 10
20260503034214 62 359 0.0 0.0 0.00 0.00 0.00 10
20260503033714 63 359 0.0 0.0 0.00 0.00 0.00 9
20260503033215 63 359 0.0 0.0 0.00 0.00 0.00 9
20260503032714 63 359 0.0 0.0 0.00 0.00 0.00 9
20260503032215 63 359 0.0 0.0 0.00 0.00 0.00 9
20260503031714 63 359 0.0 0.0 0.00 0.00 0.00 9
20260503031214 63 359 0.0 0.0 0.00 0.00 0.00 9
20260503030714 64 359 0.0 0.0 0.00 0.00 0.00 9
20260503030214 64 359 0.0 0.0 0.00 0.00 0.00 8
20260503025714 64 359 0.0 0.0 0.00 0.00 0.00 8
20260503025214 64 359 0.0 0.0 0.00 0.00 0.00 8
20260503024714 64 359 0.0 0.0 0.00 0.00 0.00 8
20260503024214 65 359 0.0 0.0 0.00 0.00 0.00 8
20260503023714 65 359 0.0 0.0 0.00 0.00 0.00 8
20260503023214 65 359 0.0 0.0 0.00 0.00 0.00 7
20260503022714 65 359 0.0 0.0 0.00 0.00 0.00 7
20260503022214 65 359 0.0 0.0 0.00 0.00 0.00 7
20260503021713 66 359 0.0 0.0 0.00 0.00 0.00 7
20260503021214 66 359 0.0 0.0 0.00 0.00 0.00 7
20260503020714 66 359 0.0 0.0 0.00 0.00 0.00 7
20260503020214 66 359 0.0 0.0 0.00 0.00 0.00 7
20260503015714 66 359 0.0 0.0 0.00 0.00 0.00 6
20260503015213 66 359 0.0 0.0 0.00 0.00 0.00 6
20260503014714 67 359 0.0 0.0 0.00 0.00 0.00 6
20260503014213 67 359 0.0 0.0 0.00 0.00 0.00 6
20260503013714 67 359 0.0 0.0 0.00 0.00 0.00 6
20260503013214 68 359 0.0 0.0 0.00 0.00 0.00 6
20260503012713 68 359 0.0 0.0 0.00 0.00 0.00 6
20260503012213 68 359 0.0 0.0 0.00 0.00 0.00 6
20260503011714 69 359 0.0 0.0 0.00 0.00 0.00 5
20260503011214 69 359 0.0 0.0 0.00 0.00 0.00 5
20260503010714 69 359 0.0 0.0 0.00 0.00 0.00 5
20260503010214 70 359 0.0 0.0 0.00 0.00 0.00 5
20260503005714 70 359 0.0 0.0 0.00 0.00 0.00 5
20260503005214 70 359 0.0 0.0 0.00 0.00 0.00 5
20260503004714 70 359 0.0 0.0 0.00 0.00 0.00 5
20260503004217 70 359 0.0 0.0 0.00 0.00 0.00 5
20260503003714 70 359 0.0 0.0 0.00 0.00 0.00 5
20260503003214 71 359 0.0 0.0 0.00 0.00 0.00 5
20260503002713 71 359 0.0 0.0 0.00 0.00 0.00 4
20260503002214 71 359 0.0 0.0 0.00 0.00 0.00 4
20260503001715 71 359 0.0 0.0 0.00 0.00 0.00 4
20260503001215 72 359 0.0 0.0 0.00 0.00 0.00 4
20260503000714 72 359 0.0 0.0 0.00 0.00 0.00 4
20260503000215 72 359 0.0 0.0 0.00 0.00 0.00 4
20260502235714 72 359 0.0 0.0 0.00 0.00 0.00 4
20260502235214 72 359 0.0 0.0 0.00 0.00 0.00 4
20260502234715 72 359 0.0 0.0 0.00 0.00 0.00 4
20260502234215 72 359 0.0 0.0 0.00 0.00 0.00 4
20260502233714 72 359 0.0 0.0 0.00 0.00 0.00 4
20260502233215 72 359 0.0 0.0 0.00 0.00 0.00 4
20260502232714 72 359 0.0 0.0 0.00 0.00 0.00 4
20260502232214 72 359 0.0 0.0 0.00 0.00 0.00 4
20260502231714 72 359 0.0 0.0 0.00 0.00 0.00 4
20260502231213 72 359 0.0 0.0 0.00 0.00 0.00 4
20260502230214 73 359 0.0 0.0 0.00 0.00 0.00 5
20260502225714 72 359 0.0 0.0 0.00 0.00 0.00 5
20260502225214 72 359 0.0 0.0 0.00 0.00 0.00 4
20260502224713 72 359 0.0 0.0 0.00 0.00 0.00 4
20260502224214 72 359 0.0 0.0 0.00 0.00 0.00 4
20260502223713 73 359 0.0 0.0 0.00 0.00 0.00 4
20260502223214 73 359 0.0 0.0 0.00 0.00 0.00 4
20260502222714 72 359 0.0 0.0 0.00 0.00 0.00 4
20260502222215 72 359 0.0 0.0 0.00 0.00 0.00 4
20260502221714 72 359 0.0 0.0 0.00 0.00 0.00 5
20260502221214 72 359 0.0 0.0 0.00 0.00 0.00 5
20260502220714 72 359 0.0 0.0 0.00 0.00 0.00 5
20260502220214 72 359 0.0 0.0 0.00 0.00 0.00 5
20260502215713 72 359 0.0 0.0 0.00 0.00 0.00 5
20260502215214 72 359 0.0 0.0 0.00 0.00 0.00 5
20260502214713 72 359 0.0 0.0 0.00 0.00 0.00 5
20260502214213 72 359 0.0 0.0 0.00 0.00 0.00 5
20260502213713 72 359 0.0 0.0 0.00 0.00 0.00 5
20260502213215 72 359 0.0 0.0 0.00 0.00 0.00 5
20260502212714 72 359 0.0 0.0 0.00 0.00 0.00 5
20260502211713 72 359 0.0 0.0 0.00 0.00 0.00 6
20260502211214 71 359 0.0 0.0 0.00 0.00 0.00 5
20260502210714 71 359 0.0 0.0 0.00 0.00 0.00 5
20260502210214 71 359 0.0 0.0 0.00 0.00 0.00 6
20260502205713 71 359 0.0 0.0 0.00 0.00 0.00 6
20260502205213 70 359 0.0 0.0 0.00 0.00 0.00 6
20260502204714 70 359 0.0 0.0 0.00 0.00 0.00 6
20260502204215 70 359 0.0 0.0 0.00 0.00 0.00 6
20260502203714 69 359 0.0 0.0 0.00 0.00 0.00 7
20260502203214 69 359 0.0 0.0 0.00 0.00 0.00 7
20260502202214 68 359 0.0 0.0 0.00 0.00 0.00 7
20260502201713 67 359 0.0 0.0 0.00 0.00 0.00 7
20260502201214 67 359 0.0 0.0 0.00 0.00 0.00 8
20260502200714 66 359 0.0 0.0 0.00 0.00 0.00 9
20260502200215 64 359 0.0 0.0 0.00 0.00 0.00 9
20260502195713 64 359 0.0 0.0 0.00 0.00 0.00 9
20260502195213 64 359 0.0 0.0 0.00 0.00 0.00 9
20260502194713 63 359 0.0 0.0 0.00 0.00 0.00 9
20260502194213 63 359 0.0 0.0 0.00 0.00 0.00 9
20260502193713 63 359 0.0 0.0 0.00 0.00 0.00 9
20260502193215 63 359 0.0 0.0 0.00 0.00 0.00 9
20260502192714 63 359 0.0 0.0 0.00 0.00 0.00 9
20260502192213 63 359 0.0 0.0 0.00 0.00 0.00 9
20260502191713 62 359 0.0 0.0 0.00 0.00 0.00 9
20260502191214 62 359 0.0 0.0 0.00 0.00 0.00 9
20260502190714 62 359 0.0 0.0 0.00 0.00 0.00 9
20260502190214 62 359 0.0 0.0 0.00 0.00 0.00 9
20260502185713 62 359 0.0 0.0 0.00 0.00 0.00 9
20260502185215 62 359 0.0 0.0 0.00 0.00 0.00 10
20260502184714 62 359 0.0 0.0 0.00 0.00 0.00 10